createdAt,value
2023-01-21T00:16:39.629Z,100.00
2023-01-21T00:19:41.976Z,100.00
2023-01-21T02:13:20.237Z,100.00
2023-01-21T02:18:56.972Z,100.00
2023-01-21T03:04:52.994Z,100.00
2023-01-21T03:07:31.695Z,100.00
2023-01-21T03:19:45.531Z,100.00
2023-01-21T06:00:04.791Z,95.25
2023-01-21T07:39:23.848Z,92.77
2023-01-21T07:48:12.718Z,91.04
2023-01-21T08:06:25.045Z,92.77
2023-01-21T08:08:55.049Z,91.70
2023-01-21T08:11:29.734Z,91.34
2023-01-21T08:23:06.164Z,90.48
2023-01-21T08:37:57.592Z,89.45
2023-01-21T09:01:45.539Z,89.72
2023-01-21T09:04:18.235Z,89.07
2023-01-21T09:13:31.170Z,90.24
2023-01-21T09:16:06.832Z,90.57
2023-01-21T09:18:38.584Z,91.10
2023-01-21T09:21:13.594Z,91.39
2023-01-21T09:23:44.915Z,91.76
2023-01-21T09:26:20.695Z,91.22
2023-01-21T09:28:53.924Z,92.37
2023-01-21T09:31:29.153Z,89.99
2023-01-21T09:34:14.412Z,91.35
2023-01-21T09:36:51.960Z,91.71
2023-01-21T09:39:23.989Z,90.52
2023-01-21T09:42:04.569Z,91.26
2023-01-21T09:44:45.208Z,90.16
2023-01-21T09:50:59.050Z,91.25
2023-01-21T09:53:37.481Z,91.76
2023-01-21T09:56:25.112Z,91.68
2023-01-21T09:59:06.621Z,92.93
2023-01-21T10:11:07.365Z,92.93
2023-01-21T10:14:10.594Z,92.87
2023-01-21T10:16:45.996Z,92.94
2023-01-21T10:19:23.474Z,92.62
2023-01-21T10:21:59.014Z,92.12
2023-01-21T10:24:42.743Z,92.44
2023-01-21T10:27:27.512Z,91.40
2023-01-21T10:30:12.408Z,91.19
2023-01-21T10:32:43.402Z,90.59
2023-01-21T10:35:19.677Z,89.84
2023-01-21T11:12:57.805Z,87.98
2023-01-21T11:18:44.575Z,88.50
2023-01-21T11:30:51.209Z,87.65
2023-01-21T11:33:35.001Z,87.20
2023-01-21T11:36:35.931Z,88.35
2023-01-21T11:58:49.457Z,87.35
2023-01-21T12:01:21.931Z,86.95
2023-01-21T12:04:03.257Z,85.87
2023-01-21T12:06:37.122Z,86.08
2023-01-21T12:09:11.419Z,86.42
2023-01-21T12:11:41.170Z,86.87
2023-01-21T12:14:26.946Z,86.18
2023-01-21T12:17:07.148Z,85.34
2023-01-21T12:19:54.653Z,85.49
2023-01-21T12:22:52.107Z,85.57
2023-01-21T12:25:43.463Z,85.59
2023-01-21T12:28:33.705Z,84.81
2023-01-21T12:31:28.926Z,84.46
2023-01-21T12:34:04.354Z,83.59
2023-01-21T12:36:41.041Z,84.38
2023-01-21T12:39:27.447Z,83.30
2023-01-21T12:42:16.769Z,84.22
2023-01-21T12:44:59.980Z,83.32
2023-01-21T12:47:41.877Z,83.61
2023-01-21T12:50:50.280Z,83.79
2023-01-21T12:53:37.705Z,84.23
2023-01-21T12:56:35.889Z,85.59
2023-01-21T13:02:20.677Z,85.48
2023-01-21T13:05:08.917Z,85.27
2023-01-21T13:07:51.867Z,84.94
2023-01-21T13:19:37.614Z,85.41
2023-01-21T13:32:27.942Z,84.92
2023-01-21T13:35:26.751Z,85.01
2023-01-21T13:38:08.755Z,84.58
2023-01-21T13:40:47.203Z,84.40
2023-01-21T13:46:55.892Z,83.70
2023-01-21T13:50:12.107Z,85.60
2023-01-21T14:04:49.439Z,84.27
2023-01-21T14:18:37.542Z,82.67
2023-01-21T14:21:51.615Z,83.69
2023-01-21T14:24:48.877Z,83.72
2023-01-21T14:27:27.650Z,83.16
2023-01-21T14:30:01.880Z,83.77
2023-01-21T14:32:38.065Z,84.00
2023-01-21T14:35:24.285Z,85.03
2023-01-21T14:37:59.957Z,84.27
2023-01-21T14:40:41.279Z,85.33
2023-01-21T14:48:00.953Z,85.29
2023-01-21T14:50:55.557Z,85.58
2023-01-21T14:53:32.215Z,84.58
2023-01-21T14:56:22.728Z,85.72
2023-01-21T14:59:01.770Z,84.98
2023-01-21T15:02:07.117Z,86.02
2023-01-21T15:10:32.823Z,86.76
2023-01-21T15:13:13.593Z,86.15
2023-01-21T15:16:16.427Z,85.13
2023-01-21T15:19:07.608Z,86.14
2023-01-21T15:21:46.556Z,86.99
2023-01-21T15:24:37.103Z,85.58
2023-01-21T15:27:22.056Z,85.66
2023-01-21T15:30:30.520Z,86.50
2023-01-21T15:33:02.055Z,87.07
2023-01-21T15:38:28.626Z,86.04
2023-01-21T15:41:14.677Z,87.29
2023-01-21T15:43:57.586Z,87.43
2023-01-21T15:46:35.731Z,87.26
2023-01-21T15:58:40.583Z,88.57
2023-01-21T16:01:31.818Z,88.80
2023-01-21T16:04:21.902Z,89.52
2023-01-21T16:07:12.228Z,89.01
2023-01-21T16:09:52.859Z,88.81
2023-01-21T16:12:30.207Z,88.91
2023-01-21T16:15:04.301Z,89.56
2023-01-21T16:18:02.117Z,90.03
2023-01-21T16:20:32.636Z,91.63
2023-01-21T16:23:11.316Z,91.40
2023-01-21T16:25:58.917Z,92.71
2023-01-21T16:29:02.526Z,93.28
2023-01-21T16:31:47.565Z,94.10
2023-01-21T16:34:42.102Z,93.31
2023-01-21T16:37:29.503Z,93.71
2023-01-21T16:40:38.473Z,94.23
2023-01-21T16:43:24.941Z,93.30
2023-01-21T16:45:57.894Z,94.26
2023-01-21T16:48:33.072Z,95.28
2023-01-21T16:51:19.386Z,95.00
2023-01-21T16:53:54.514Z,94.56
2023-01-21T16:56:37.953Z,94.41
2023-01-21T16:59:22.591Z,95.04
2023-01-21T17:01:51.517Z,94.45
2023-01-21T17:04:22.676Z,95.03
2023-01-21T17:07:06.684Z,94.42
2023-01-21T17:09:47.145Z,95.21
2023-01-21T17:12:35.234Z,95.77
2023-01-21T17:18:14.785Z,96.05
2023-01-21T17:20:48.148Z,96.65
2023-01-21T17:23:40.350Z,96.10
2023-01-21T17:26:23.635Z,96.03
2023-01-21T17:29:12.577Z,95.07
2023-01-21T17:32:04.095Z,95.82
2023-01-21T17:34:45.003Z,95.02
2023-01-21T17:38:02.981Z,95.87
2023-01-21T17:40:45.586Z,94.78
2023-01-21T17:43:27.696Z,96.44
2023-01-21T17:46:02.569Z,96.23
2023-01-21T17:48:44.588Z,94.78
2023-01-21T17:51:20.379Z,94.32
2023-01-21T17:54:18.396Z,95.36
2023-01-21T17:56:55.053Z,94.61
2023-01-21T17:59:39.930Z,95.39
2023-01-21T18:02:18.225Z,94.69
2023-01-21T18:04:54.701Z,94.10
2023-01-21T18:07:31.105Z,94.57
2023-01-21T18:10:06.808Z,93.81
2023-01-21T18:12:41.920Z,93.89
2023-01-21T18:15:25.944Z,94.29
2023-01-21T18:17:59.924Z,95.02
2023-01-21T18:20:33.450Z,93.45
2023-01-21T18:23:11.475Z,94.86
2023-01-21T18:25:45.264Z,95.30
2023-01-21T18:28:28.451Z,94.61
2023-01-21T18:31:04.867Z,94.82
2023-01-21T18:33:43.523Z,94.39
2023-01-21T18:36:24.554Z,94.35
2023-01-21T18:39:01.125Z,94.70
2023-01-21T18:41:33.196Z,94.61
2023-01-21T18:44:21.975Z,94.43
2023-01-21T18:47:08.707Z,95.32
2023-01-21T18:49:44.011Z,93.96
2023-01-21T18:52:29.338Z,93.85
2023-01-21T18:55:14.397Z,92.77
2023-01-21T18:57:54.833Z,94.00
2023-01-21T19:00:47.076Z,93.51
2023-01-21T19:03:24.057Z,94.04
2023-01-21T19:05:57.665Z,95.80
2023-01-21T19:08:29.216Z,95.52
2023-01-21T19:11:03.046Z,97.00
2023-01-21T19:13:38.394Z,96.29
2023-01-21T19:16:32.233Z,96.62
2023-01-21T19:19:06.826Z,97.33
2023-01-21T19:21:51.090Z,98.43
2023-01-21T19:27:09.447Z,99.78
2023-01-21T19:29:52.364Z,99.12
2023-01-21T19:32:38.582Z,99.35
2023-01-21T19:35:12.200Z,98.52
2023-01-21T19:37:57.603Z,99.34
2023-01-21T19:40:37.019Z,99.73
2023-01-21T19:43:15.571Z,98.55
2023-01-21T19:45:53.660Z,98.25
2023-01-21T19:48:36.651Z,100.00
2023-01-21T19:51:12.220Z,100.00
2023-01-21T19:53:50.464Z,100.00
2023-01-21T19:56:26.973Z,100.00
2023-01-21T19:59:05.967Z,100.00
2023-01-21T20:01:36.889Z,98.31
2023-01-21T20:04:12.894Z,100.00
2023-01-21T20:06:45.104Z,100.00
2023-01-21T20:09:25.977Z,100.00
2023-01-21T20:11:58.053Z,100.00
2023-01-21T20:14:34.384Z,100.00
2023-01-21T20:17:05.743Z,100.00
2023-01-21T20:19:51.465Z,100.00
2023-01-21T20:22:25.847Z,100.00
2023-01-21T20:25:00.543Z,100.00
2023-01-21T20:27:43.417Z,100.00
2023-01-21T20:30:29.821Z,100.00
2023-01-21T20:33:11.761Z,100.00
2023-01-21T20:35:58.947Z,100.00
2023-01-21T20:38:39.003Z,100.00
2023-01-21T20:41:18.123Z,100.00
2023-01-21T20:43:52.677Z,100.00
2023-01-21T20:46:25.119Z,100.00
2023-01-21T20:49:06.411Z,100.00
2023-01-21T20:51:38.864Z,100.00
2023-01-21T20:54:10.944Z,100.00
2023-01-21T20:56:42.101Z,100.00
2023-01-21T20:59:21.922Z,100.00
2023-01-21T21:01:59.313Z,100.00
2023-01-21T21:04:36.611Z,99.34
2023-01-21T21:07:08.114Z,100.00
2023-01-21T21:09:57.490Z,99.89
2023-01-21T21:12:39.219Z,100.00
2023-01-21T21:15:19.537Z,100.00
2023-01-21T21:17:53.531Z,99.98
2023-01-21T21:20:24.827Z,100.00
2023-01-21T21:23:04.380Z,100.00
2023-01-21T21:25:38.832Z,100.00
2023-01-21T21:28:12.001Z,99.62
2023-01-21T21:30:41.390Z,98.12
2023-01-21T21:33:23.250Z,98.86
2023-01-21T21:35:54.461Z,98.50
2023-01-21T21:38:52.616Z,98.51
2023-01-21T21:41:41.949Z,98.82
2023-01-21T21:44:19.965Z,98.21
2023-01-21T21:47:07.233Z,99.10
2023-01-21T21:49:35.991Z,98.68
2023-01-21T21:52:04.511Z,99.18
2023-01-21T21:54:50.825Z,97.46
2023-01-21T21:57:25.271Z,98.38
2023-01-21T22:00:03.166Z,98.28
2023-01-21T22:03:03.137Z,99.39
2023-01-21T22:05:44.299Z,99.77
2023-01-21T22:08:29.932Z,98.56
2023-01-21T22:11:15.503Z,98.81
2023-01-21T22:13:50.502Z,97.75
2023-01-21T22:16:23.838Z,98.81
2023-01-21T22:19:02.797Z,99.12
2023-01-21T22:21:41.577Z,98.84
2023-01-21T22:24:16.299Z,98.77
2023-01-21T22:26:49.775Z,98.80
2023-01-21T22:29:19.310Z,98.80
2023-01-21T22:31:49.593Z,98.81
2023-01-21T22:34:19.784Z,98.31
2023-01-21T22:36:52.345Z,99.26
2023-01-21T22:39:26.016Z,98.99
2023-01-21T22:42:05.808Z,99.79
2023-01-21T22:44:47.927Z,100.00
2023-01-21T22:47:24.214Z,100.00
2023-01-21T22:49:58.484Z,100.00
2023-01-21T22:52:29.258Z,100.00
2023-01-21T22:55:17.156Z,100.00
2023-01-21T22:57:55.273Z,99.72
2023-01-21T23:00:43.615Z,99.35
2023-01-21T23:03:21.821Z,99.02
2023-01-21T23:05:51.749Z,98.71
2023-01-21T23:08:26.880Z,99.57
2023-01-21T23:11:01.774Z,99.56
2023-01-21T23:13:35.658Z,99.88
2023-01-21T23:16:14.622Z,99.15
2023-01-21T23:18:52.596Z,99.41
2023-01-21T23:21:27.848Z,99.00
2023-01-21T23:24:10.413Z,99.11
2023-01-21T23:26:40.160Z,99.56
2023-01-21T23:29:14.423Z,98.55
2023-01-21T23:31:46.346Z,99.14
2023-01-21T23:34:19.416Z,99.28
2023-01-21T23:36:48.859Z,99.69
2023-01-21T23:39:20.816Z,100.00
2023-01-21T23:41:50.697Z,99.59
2023-01-21T23:44:38.967Z,98.87
2023-01-21T23:47:15.641Z,99.96
2023-01-21T23:49:46.078Z,99.74
2023-01-21T23:52:22.620Z,100.00
2023-01-21T23:54:56.949Z,100.00
2023-01-21T23:57:40.027Z,100.00
